createdAt,value
2023-05-21T00:01:56.696Z,15.60
2023-05-21T00:04:25.495Z,15.60
2023-05-21T00:06:52.507Z,15.60
2023-05-21T00:09:19.489Z,15.70
2023-05-21T00:11:46.384Z,15.70
2023-05-21T00:14:13.449Z,15.70
2023-05-21T00:16:40.758Z,15.60
2023-05-21T00:19:08.211Z,15.70
2023-05-21T00:21:35.256Z,15.70
2023-05-21T00:24:02.280Z,15.60
2023-05-21T00:26:29.289Z,15.70
2023-05-21T00:28:56.453Z,15.70
2023-05-21T00:31:23.850Z,15.60
2023-05-21T00:33:50.839Z,15.60
2023-05-21T00:36:17.921Z,15.70
2023-05-21T00:38:46.087Z,15.60
2023-05-21T00:41:13.621Z,15.50
2023-05-21T00:43:41.922Z,15.50
2023-05-21T00:46:13.934Z,15.50
2023-05-21T00:48:41.014Z,15.60
2023-05-21T00:51:07.995Z,15.60
2023-05-21T00:53:35.621Z,15.50
2023-05-21T00:56:03.558Z,15.50
2023-05-21T00:58:33.399Z,15.50
2023-05-21T01:01:06.926Z,15.50
2023-05-21T01:03:38.910Z,15.50
2023-05-21T01:06:07.633Z,15.60
2023-05-21T01:08:37.559Z,15.60
2023-05-21T01:11:06.853Z,15.50
2023-05-21T01:13:38.602Z,15.50
2023-05-21T01:16:06.756Z,15.50
2023-05-21T01:18:35.438Z,15.50
2023-05-21T01:21:03.171Z,15.50
2023-05-21T01:23:30.579Z,15.60
2023-05-21T01:25:57.501Z,15.50
2023-05-21T01:28:24.408Z,15.50
2023-05-21T01:30:51.542Z,15.60
2023-05-21T01:33:26.813Z,15.50
2023-05-21T01:36:21.885Z,15.50
2023-05-21T01:39:24.756Z,15.50
2023-05-21T01:41:55.037Z,15.50
2023-05-21T01:44:23.262Z,15.50
2023-05-21T01:46:52.317Z,15.50
2023-05-21T01:49:19.892Z,15.50
2023-05-21T01:51:48.370Z,15.50
2023-05-21T01:54:15.752Z,15.50
2023-05-21T01:56:42.678Z,15.40
2023-05-21T01:59:10.439Z,15.30
2023-05-21T02:01:37.508Z,15.30
2023-05-21T02:04:04.586Z,15.30
2023-05-21T02:06:31.826Z,15.40
2023-05-21T02:08:59.636Z,15.40
2023-05-21T02:11:27.066Z,15.40
2023-05-21T02:13:54.541Z,15.40
2023-05-21T02:16:22.486Z,15.40
2023-05-21T02:18:52.249Z,15.40
2023-05-21T02:21:20.737Z,15.40
2023-05-21T02:23:47.694Z,15.30
2023-05-21T02:26:14.788Z,15.30
2023-05-21T02:28:41.697Z,15.30
2023-05-21T02:31:09.974Z,15.30
2023-05-21T02:33:37.066Z,15.20
2023-05-21T02:36:04.934Z,15.20
2023-05-21T02:38:32.606Z,15.20
2023-05-21T02:40:59.653Z,15.20
2023-05-21T02:43:26.664Z,15.20
2023-05-21T02:45:53.668Z,15.10
2023-05-21T02:48:20.589Z,15.20
2023-05-21T02:50:47.502Z,15.20
2023-05-21T02:53:14.504Z,15.10
2023-05-21T02:55:42.277Z,15.10
2023-05-21T02:58:09.904Z,15.10
2023-05-21T03:00:36.934Z,15.10
2023-05-21T03:03:04.040Z,15.10
2023-05-21T03:05:31.183Z,15.00
2023-05-21T03:07:58.178Z,14.90
2023-05-21T03:10:25.271Z,15.00
2023-05-21T03:12:53.669Z,15.00
2023-05-21T03:15:23.955Z,15.00
2023-05-21T03:17:54.183Z,14.90
2023-05-21T03:20:21.329Z,14.90
2023-05-21T03:22:48.325Z,15.00
2023-05-21T03:25:15.409Z,14.90
2023-05-21T03:27:42.391Z,14.90
2023-05-21T03:30:09.963Z,15.00
2023-05-21T03:32:38.078Z,14.90
2023-05-21T03:35:05.863Z,14.80
2023-05-21T03:37:32.841Z,14.90
2023-05-21T03:40:00.190Z,14.80
2023-05-21T03:42:27.224Z,14.80
2023-05-21T03:44:54.197Z,14.80
2023-05-21T03:47:21.432Z,14.70
2023-05-21T03:49:48.386Z,14.60
2023-05-21T03:52:15.415Z,14.70
2023-05-21T03:54:42.389Z,14.70
2023-05-21T03:57:09.758Z,14.70
2023-05-21T03:59:36.814Z,14.70
2023-05-21T04:02:04.200Z,14.70
2023-05-21T04:04:31.235Z,14.70
2023-05-21T04:06:58.157Z,14.60
2023-05-21T04:09:25.161Z,14.70
2023-05-21T04:11:52.113Z,14.70
2023-05-21T04:14:19.261Z,14.70
2023-05-21T04:16:49.086Z,14.70
2023-05-21T04:19:16.192Z,14.70
2023-05-21T04:21:44.996Z,14.70
2023-05-21T04:24:12.068Z,14.70
2023-05-21T04:26:42.042Z,14.80
2023-05-21T04:29:10.032Z,14.80
2023-05-21T04:31:37.064Z,14.80
2023-05-21T04:34:04.471Z,14.80
2023-05-21T04:36:31.491Z,14.90
2023-05-21T04:38:58.466Z,14.90
2023-05-21T04:41:25.395Z,14.90
2023-05-21T04:43:55.435Z,14.90
2023-05-21T04:46:25.421Z,14.90
2023-05-21T04:48:55.644Z,15.00
2023-05-21T04:51:24.706Z,15.00
2023-05-21T04:53:52.056Z,15.00
2023-05-21T04:56:19.059Z,15.10
2023-05-21T04:58:47.877Z,15.10
2023-05-21T05:01:15.852Z,15.10
2023-05-21T05:03:42.997Z,15.20
2023-05-21T05:06:10.490Z,15.20
2023-05-21T05:08:37.506Z,15.30
2023-05-21T05:11:04.654Z,15.40
2023-05-21T05:13:31.653Z,15.40
2023-05-21T05:15:58.592Z,15.50
2023-05-21T05:18:25.722Z,15.70
2023-05-21T05:20:52.672Z,15.80
2023-05-21T05:23:19.592Z,16.00
2023-05-21T05:25:46.852Z,16.20
2023-05-21T05:28:13.834Z,16.20
2023-05-21T05:30:40.830Z,16.20
2023-05-21T05:33:07.956Z,16.30
2023-05-21T05:35:35.172Z,16.40
2023-05-21T05:38:02.289Z,16.40
2023-05-21T05:40:29.542Z,16.40
2023-05-21T05:42:56.471Z,16.60
2023-05-21T05:45:23.481Z,16.70
2023-05-21T05:47:50.552Z,16.70
2023-05-21T05:50:17.519Z,16.80
2023-05-21T05:52:44.537Z,16.90
2023-05-21T05:55:12.443Z,17.00
2023-05-21T05:57:39.413Z,17.30
2023-05-21T06:00:07.418Z,17.40
2023-05-21T06:02:34.526Z,17.50
2023-05-21T06:05:01.887Z,17.60
2023-05-21T06:07:29.165Z,17.70
2023-05-21T06:09:56.114Z,17.80
2023-05-21T06:12:23.128Z,17.80
2023-05-21T06:14:50.974Z,18.00
2023-05-21T06:17:17.971Z,18.00
2023-05-21T06:19:45.857Z,18.00
2023-05-21T06:22:12.807Z,18.10
2023-05-21T06:24:40.173Z,18.10
2023-05-21T06:27:07.218Z,18.00
2023-05-21T06:29:34.246Z,18.00
2023-05-21T06:32:01.737Z,18.20
2023-05-21T06:34:29.153Z,18.30
2023-05-21T06:36:56.173Z,18.40
2023-05-21T06:39:24.557Z,18.30
2023-05-21T06:41:51.596Z,18.30
2023-05-21T06:44:18.576Z,18.30
2023-05-21T06:46:45.641Z,18.50
2023-05-21T06:49:14.471Z,18.60
2023-05-21T06:51:41.528Z,18.60
2023-05-21T06:54:08.576Z,18.70
2023-05-21T06:56:35.552Z,18.90
2023-05-21T06:59:02.578Z,19.00
2023-05-21T07:01:30.746Z,19.10
2023-05-21T07:03:57.830Z,19.10
2023-05-21T07:06:24.852Z,19.00
2023-05-21T07:08:51.787Z,19.30
2023-05-21T07:11:19.096Z,19.40
2023-05-21T07:13:46.074Z,19.40
2023-05-21T07:16:13.094Z,19.60
2023-05-21T07:18:40.160Z,19.40
2023-05-21T07:21:07.292Z,19.40
2023-05-21T07:23:34.281Z,19.40
2023-05-21T07:26:01.458Z,19.60
2023-05-21T07:28:28.402Z,19.90
2023-05-21T07:30:55.380Z,20.00
2023-05-21T07:33:22.911Z,20.30
2023-05-21T07:35:49.996Z,20.40
2023-05-21T07:38:17.616Z,20.40
2023-05-21T07:40:44.579Z,20.40
2023-05-21T07:43:12.644Z,20.50
2023-05-21T07:45:39.861Z,20.50
2023-05-21T07:48:07.033Z,20.50
2023-05-21T07:50:34.158Z,20.50
2023-05-21T07:53:01.323Z,20.70
2023-05-21T07:55:28.250Z,20.60
2023-05-21T07:57:55.192Z,20.60
2023-05-21T08:00:24.324Z,20.80
2023-05-21T08:02:52.786Z,21.00
2023-05-21T08:05:21.333Z,21.20
2023-05-21T08:07:48.363Z,21.50
2023-05-21T08:10:16.680Z,21.40
2023-05-21T08:12:45.678Z,21.60
2023-05-21T08:15:12.648Z,21.50
2023-05-21T08:17:39.812Z,21.70
2023-05-21T08:20:07.791Z,21.50
2023-05-21T08:22:34.780Z,21.60
2023-05-21T08:25:01.764Z,21.70
2023-05-21T08:27:29.039Z,21.80
2023-05-21T08:29:56.117Z,21.80
2023-05-21T08:32:23.097Z,21.90
2023-05-21T08:34:50.034Z,22.10
2023-05-21T08:37:18.382Z,22.30
2023-05-21T08:39:46.113Z,22.20
2023-05-21T08:42:39.716Z,22.40
2023-05-21T08:45:08.331Z,22.70
2023-05-21T08:47:37.100Z,22.30
2023-05-21T08:50:07.361Z,22.30
2023-05-21T08:52:34.323Z,22.80
2023-05-21T08:55:04.360Z,23.30
2023-05-21T08:57:31.986Z,23.00
2023-05-21T09:00:00.278Z,22.80
2023-05-21T09:02:28.183Z,22.90
2023-05-21T09:04:57.206Z,22.90
2023-05-21T09:07:31.068Z,22.70
2023-05-21T09:10:06.003Z,22.90
2023-05-21T09:12:33.106Z,22.90
2023-05-21T09:15:01.342Z,23.40
2023-05-21T09:17:28.496Z,23.40
2023-05-21T09:20:13.307Z,24.00
2023-05-21T09:22:48.933Z,23.60
2023-05-21T09:25:28.255Z,23.50
2023-05-21T09:27:59.405Z,23.60
2023-05-21T09:30:29.732Z,23.70
2023-05-21T09:32:59.680Z,23.60
2023-05-21T09:35:26.983Z,23.50
2023-05-21T09:37:54.394Z,23.50
2023-05-21T09:40:23.513Z,23.60
2023-05-21T09:42:52.920Z,23.50
2023-05-21T09:45:25.492Z,23.50
2023-05-21T09:47:54.700Z,23.90
2023-05-21T09:50:31.451Z,24.50
2023-05-21T09:52:58.605Z,24.60
2023-05-21T09:55:27.001Z,24.50
2023-05-21T09:57:54.154Z,24.40
2023-05-21T10:00:27.581Z,24.30
2023-05-21T10:02:57.176Z,24.30
2023-05-21T10:05:30.969Z,24.20
2023-05-21T10:08:03.581Z,24.20
2023-05-21T10:10:32.193Z,24.00
2023-05-21T10:13:06.980Z,23.90
2023-05-21T10:15:41.091Z,23.90
2023-05-21T10:18:10.420Z,23.70
2023-05-21T10:20:38.257Z,23.60
2023-05-21T10:23:06.331Z,23.90
2023-05-21T10:25:33.633Z,24.10
2023-05-21T10:28:01.043Z,24.00
2023-05-21T10:30:28.507Z,23.80
2023-05-21T10:32:57.341Z,23.70
2023-05-21T10:35:25.051Z,23.10
2023-05-21T10:37:54.378Z,23.00
2023-05-21T10:40:21.444Z,22.90
2023-05-21T10:43:31.210Z,23.00
2023-05-21T10:46:29.460Z,23.00
2023-05-21T10:49:11.523Z,23.00
2023-05-21T10:52:27.967Z,23.20
2023-05-21T10:55:33.162Z,23.00
2023-05-21T10:58:46.524Z,23.20
2023-05-21T11:01:15.450Z,23.20
2023-05-21T11:03:42.692Z,23.20
2023-05-21T11:06:11.662Z,23.00
2023-05-21T11:08:47.644Z,22.90
2023-05-21T11:11:59.453Z,23.00
2023-05-21T11:14:35.749Z,23.10
2023-05-21T11:17:13.937Z,23.20
2023-05-21T11:19:48.913Z,23.30
2023-05-21T11:22:25.568Z,23.30
2023-05-21T11:24:54.920Z,23.20
2023-05-21T11:27:37.033Z,23.20
2023-05-21T11:30:09.387Z,23.10
2023-05-21T11:33:10.827Z,23.10
2023-05-21T11:36:00.248Z,23.20
2023-05-21T11:38:31.657Z,23.40
2023-05-21T11:41:03.835Z,23.40
2023-05-21T11:43:31.201Z,23.60
2023-05-21T11:45:59.178Z,23.70
2023-05-21T11:48:28.091Z,23.80
2023-05-21T11:50:57.500Z,24.00
2023-05-21T11:53:24.543Z,24.10
2023-05-21T11:55:57.344Z,24.20
2023-05-21T11:58:24.499Z,24.20
2023-05-21T12:00:52.098Z,24.30
2023-05-21T12:03:26.649Z,24.40
2023-05-21T12:05:54.352Z,24.30
2023-05-21T12:08:25.427Z,24.20
2023-05-21T12:11:00.114Z,24.20
2023-05-21T12:13:28.175Z,24.20
2023-05-21T12:15:55.188Z,24.10
2023-05-21T12:18:22.338Z,24.10
2023-05-21T12:20:51.964Z,24.30
2023-05-21T12:23:25.604Z,24.40
2023-05-21T12:25:53.822Z,24.40
2023-05-21T12:28:27.429Z,24.60
2023-05-21T12:30:54.515Z,24.50
2023-05-21T12:33:24.453Z,24.50
2023-05-21T12:35:52.625Z,24.60
2023-05-21T12:38:19.724Z,24.70
2023-05-21T12:40:46.689Z,24.80
2023-05-21T12:43:13.790Z,25.00
2023-05-21T12:45:41.123Z,25.10
2023-05-21T12:48:08.729Z,24.90
2023-05-21T12:50:40.820Z,24.90
2023-05-21T12:53:11.128Z,24.90
2023-05-21T12:55:38.096Z,24.70
2023-05-21T12:58:08.195Z,25.20
2023-05-21T13:00:35.745Z,25.60
2023-05-21T13:03:06.065Z,25.50
2023-05-21T13:05:33.632Z,26.10
2023-05-21T13:08:00.574Z,26.60
2023-05-21T13:10:27.653Z,26.10
2023-05-21T13:12:54.839Z,25.60
2023-05-21T13:15:21.953Z,25.40
2023-05-21T13:17:50.621Z,25.50
2023-05-21T13:20:21.524Z,25.20
2023-05-21T13:23:05.863Z,25.20
2023-05-21T13:25:33.710Z,25.10
2023-05-21T13:28:05.530Z,25.30
2023-05-21T13:30:35.403Z,25.60
2023-05-21T13:33:03.361Z,25.50
2023-05-21T13:35:31.073Z,25.60
2023-05-21T13:37:58.078Z,25.50
2023-05-21T13:40:25.032Z,25.60
2023-05-21T13:42:52.114Z,25.50
2023-05-21T13:45:21.148Z,25.50
2023-05-21T13:47:48.906Z,25.60
2023-05-21T13:50:16.992Z,25.80
2023-05-21T13:52:44.201Z,25.80
2023-05-21T13:55:11.671Z,25.90
2023-05-21T13:57:38.750Z,26.00
2023-05-21T14:00:09.138Z,26.30
2023-05-21T14:02:36.303Z,26.10
2023-05-21T14:05:03.588Z,26.10
2023-05-21T14:07:30.979Z,26.20
2023-05-21T14:09:58.244Z,26.20
2023-05-21T14:12:26.680Z,26.10
2023-05-21T14:14:53.715Z,26.40
2023-05-21T14:17:20.808Z,26.50
2023-05-21T14:19:48.155Z,26.90
2023-05-21T14:22:15.101Z,27.40
2023-05-21T14:24:42.143Z,27.60
2023-05-21T14:27:09.339Z,27.40
2023-05-21T14:29:36.286Z,27.60
2023-05-21T14:32:03.332Z,27.70
2023-05-21T14:34:30.294Z,27.70
2023-05-21T14:36:57.808Z,27.90
2023-05-21T14:39:24.784Z,27.30
2023-05-21T14:41:51.739Z,27.20
2023-05-21T14:44:19.993Z,27.70
2023-05-21T14:46:46.933Z,28.20
2023-05-21T14:49:14.509Z,28.10
2023-05-21T14:51:44.956Z,28.20
2023-05-21T14:54:11.976Z,28.30
2023-05-21T14:56:39.763Z,28.00
2023-05-21T14:59:06.732Z,27.70
2023-05-21T15:01:34.003Z,27.50
2023-05-21T15:04:02.751Z,27.30
2023-05-21T15:06:36.522Z,27.30
2023-05-21T15:09:03.514Z,27.50
2023-05-21T15:11:30.624Z,27.40
2023-05-21T15:13:57.795Z,27.40
2023-05-21T15:16:24.763Z,27.30
2023-05-21T15:18:51.938Z,27.20
2023-05-21T15:21:19.555Z,27.00
2023-05-21T15:23:46.536Z,26.50
2023-05-21T15:26:13.539Z,26.40
2023-05-21T15:28:40.529Z,26.40
2023-05-21T15:31:07.621Z,26.60
2023-05-21T15:33:34.729Z,26.70
2023-05-21T15:36:01.777Z,26.70
2023-05-21T15:38:28.969Z,26.60
2023-05-21T15:40:57.012Z,26.70
2023-05-21T15:43:24.065Z,26.70
2023-05-21T15:45:50.971Z,26.50
2023-05-21T15:48:22.636Z,26.50
2023-05-21T15:50:50.050Z,26.50
2023-05-21T15:53:17.125Z,26.80
2023-05-21T15:55:44.833Z,27.00
2023-05-21T15:58:11.789Z,26.90
2023-05-21T16:00:39.252Z,27.00
2023-05-21T16:03:06.340Z,27.10
2023-05-21T16:05:33.531Z,26.90
2023-05-21T16:08:00.649Z,26.80
2023-05-21T16:10:27.584Z,26.90
2023-05-21T16:12:54.744Z,27.00
2023-05-21T16:15:21.779Z,27.20
2023-05-21T16:17:49.401Z,27.00
2023-05-21T16:20:18.751Z,27.00
2023-05-21T16:22:45.779Z,27.00
2023-05-21T16:25:13.760Z,27.10
2023-05-21T16:27:40.812Z,27.20
2023-05-21T16:30:08.549Z,27.50
2023-05-21T16:32:35.525Z,27.70
2023-05-21T16:35:02.694Z,27.80
2023-05-21T16:37:29.652Z,27.60
2023-05-21T16:39:56.650Z,28.00
2023-05-21T16:42:23.966Z,27.30
2023-05-21T16:44:51.096Z,27.40
2023-05-21T16:47:18.126Z,27.40
2023-05-21T16:49:45.058Z,27.30
2023-05-21T16:52:12.007Z,27.30
2023-05-21T16:54:39.232Z,27.30
2023-05-21T16:57:06.460Z,27.40
2023-05-21T16:59:33.533Z,27.80
2023-05-21T17:02:00.705Z,28.20
2023-05-21T17:04:28.174Z,28.50
2023-05-21T17:06:55.322Z,28.50
2023-05-21T17:09:22.348Z,28.50
2023-05-21T17:11:49.531Z,28.60
2023-05-21T17:14:30.350Z,28.60
2023-05-21T17:17:01.300Z,28.50
2023-05-21T17:19:28.443Z,28.40
2023-05-21T17:21:56.240Z,28.30
2023-05-21T17:24:23.306Z,28.40
2023-05-21T17:26:50.423Z,28.20
2023-05-21T17:29:17.500Z,28.20
2023-05-21T17:31:44.922Z,27.90
2023-05-21T17:34:12.217Z,27.70
2023-05-21T17:36:39.247Z,27.60
2023-05-21T17:39:07.424Z,27.50
2023-05-21T17:41:34.660Z,27.40
2023-05-21T17:44:01.884Z,27.30
2023-05-21T17:46:29.594Z,27.40
2023-05-21T17:48:57.301Z,27.20
2023-05-21T17:51:24.910Z,26.90
2023-05-21T17:53:51.955Z,26.60
2023-05-21T17:56:20.212Z,26.40
2023-05-21T17:58:47.310Z,26.20
2023-05-21T18:01:14.654Z,26.50
2023-05-21T18:03:42.774Z,26.50
2023-05-21T18:06:09.984Z,26.60
2023-05-21T18:08:37.109Z,26.50
2023-05-21T18:11:04.369Z,26.80
2023-05-21T18:13:32.042Z,26.60
2023-05-21T18:15:59.726Z,26.20
2023-05-21T18:18:27.047Z,25.70
2023-05-21T18:20:54.227Z,25.50
2023-05-21T18:23:21.406Z,25.30
2023-05-21T18:25:48.635Z,24.90
2023-05-21T18:28:16.796Z,24.60
2023-05-21T18:30:43.987Z,24.50
2023-05-21T18:33:12.784Z,24.30
2023-05-21T18:35:44.712Z,24.10
2023-05-21T18:38:12.651Z,23.90
2023-05-21T18:40:41.361Z,23.70
2023-05-21T18:43:10.806Z,23.50
2023-05-21T18:45:38.074Z,23.50
2023-05-21T18:48:05.623Z,23.40
2023-05-21T18:50:34.564Z,23.30
2023-05-21T18:53:02.250Z,23.20
2023-05-21T18:55:30.586Z,23.00
2023-05-21T18:57:57.751Z,22.90
2023-05-21T19:00:24.861Z,22.90
2023-05-21T19:02:52.120Z,22.70
2023-05-21T19:05:19.751Z,22.40
2023-05-21T19:07:46.815Z,22.30
2023-05-21T19:10:14.118Z,22.10
2023-05-21T19:12:43.583Z,21.90
2023-05-21T19:15:11.808Z,21.80
2023-05-21T19:17:39.920Z,21.80
2023-05-21T19:20:09.221Z,21.60
2023-05-21T19:22:39.847Z,21.60
2023-05-21T19:25:07.824Z,21.40
2023-05-21T19:27:36.203Z,21.30
2023-05-21T19:30:03.505Z,21.10
2023-05-21T19:32:31.587Z,21.00
2023-05-21T19:35:00.522Z,21.00
2023-05-21T19:37:32.606Z,20.90
2023-05-21T19:39:59.725Z,20.90
2023-05-21T19:42:27.418Z,20.80
2023-05-21T19:44:55.412Z,20.80
2023-05-21T19:47:30.294Z,20.70
2023-05-21T19:49:57.338Z,20.70
2023-05-21T19:52:24.330Z,20.60
2023-05-21T19:54:51.762Z,20.60
2023-05-21T19:57:19.850Z,20.60
2023-05-21T19:59:46.797Z,20.50
2023-05-21T20:02:15.962Z,20.40
2023-05-21T20:04:42.915Z,20.30
2023-05-21T20:07:10.171Z,20.20
2023-05-21T20:09:37.709Z,20.10
2023-05-21T20:12:05.374Z,20.00
2023-05-21T20:14:33.578Z,19.80
2023-05-21T20:17:05.814Z,19.70
2023-05-21T20:19:32.966Z,19.60
2023-05-21T20:22:00.055Z,19.60
2023-05-21T20:24:27.075Z,19.50
2023-05-21T20:26:59.782Z,19.40
2023-05-21T20:29:29.995Z,19.40
2023-05-21T20:31:57.060Z,19.30
2023-05-21T20:34:27.659Z,19.30
2023-05-21T20:36:58.280Z,19.20
2023-05-21T20:39:27.779Z,19.10
2023-05-21T20:41:56.012Z,18.90
2023-05-21T20:44:23.059Z,18.70
2023-05-21T20:46:50.238Z,18.60
2023-05-21T20:49:17.694Z,18.60
2023-05-21T20:51:44.940Z,18.70
2023-05-21T20:54:13.095Z,18.80
2023-05-21T20:56:42.673Z,18.90
2023-05-21T20:59:12.106Z,19.30
2023-05-21T21:01:40.763Z,19.40
2023-05-21T21:04:08.443Z,19.30
2023-05-21T21:06:38.312Z,19.40
2023-05-21T21:09:05.512Z,19.50
2023-05-21T21:11:32.497Z,19.60
2023-05-21T21:13:59.495Z,19.40
2023-05-21T21:16:26.569Z,19.30
2023-05-21T21:18:53.539Z,19.20
2023-05-21T21:21:20.822Z,19.10
2023-05-21T21:23:47.771Z,19.10
2023-05-21T21:26:14.756Z,19.10
2023-05-21T21:28:41.713Z,19.30
2023-05-21T21:31:09.181Z,19.50
2023-05-21T21:33:36.244Z,19.50
2023-05-21T21:36:03.306Z,19.40
2023-05-21T21:38:30.281Z,19.50
2023-05-21T21:40:57.354Z,19.50
2023-05-21T21:43:24.292Z,19.40
2023-05-21T21:45:51.413Z,19.10
2023-05-21T21:48:18.571Z,18.70
2023-05-21T21:50:45.867Z,18.60
2023-05-21T21:53:14.023Z,18.30
2023-05-21T21:55:41.178Z,18.20
2023-05-21T21:58:08.318Z,18.20
2023-05-21T22:00:35.483Z,18.20
2023-05-21T22:03:02.454Z,18.30
2023-05-21T22:05:31.383Z,18.30
2023-05-21T22:07:58.453Z,18.20
2023-05-21T22:10:25.679Z,18.20
2023-05-21T22:12:52.590Z,18.10
2023-05-21T22:15:27.393Z,18.10
2023-05-21T22:17:55.118Z,18.20
2023-05-21T22:20:23.300Z,18.20
2023-05-21T22:22:50.312Z,18.00
2023-05-21T22:25:17.438Z,17.80
2023-05-21T22:27:44.597Z,17.70
2023-05-21T22:30:12.077Z,17.60
2023-05-21T22:32:39.596Z,17.50
2023-05-21T22:35:07.264Z,17.50
2023-05-21T22:37:34.277Z,17.60
2023-05-21T22:40:01.314Z,17.50
2023-05-21T22:42:28.308Z,17.50
2023-05-21T22:44:55.444Z,17.50
2023-05-21T22:47:23.792Z,17.30
2023-05-21T22:49:53.885Z,17.30
2023-05-21T22:52:21.978Z,17.40
2023-05-21T22:54:52.559Z,17.30
2023-05-21T22:57:20.531Z,17.40
2023-05-21T22:59:47.581Z,17.40
2023-05-21T23:02:16.467Z,17.20
2023-05-21T23:04:44.538Z,17.10
2023-05-21T23:07:12.486Z,17.10
2023-05-21T23:09:39.851Z,17.10
2023-05-21T23:12:07.589Z,16.80
2023-05-21T23:14:34.526Z,16.80
2023-05-21T23:17:04.757Z,16.60
2023-05-21T23:19:32.938Z,16.60
2023-05-21T23:22:00.485Z,16.50
2023-05-21T23:24:29.323Z,16.30
2023-05-21T23:27:01.680Z,16.30
2023-05-21T23:29:30.748Z,16.50
2023-05-21T23:31:58.253Z,16.40
2023-05-21T23:34:25.724Z,16.10
2023-05-21T23:36:53.429Z,15.50
2023-05-21T23:39:21.088Z,15.30
2023-05-21T23:41:48.667Z,15.00
2023-05-21T23:44:16.145Z,15.00
2023-05-21T23:46:43.551Z,15.00
2023-05-21T23:49:10.588Z,15.10
2023-05-21T23:51:38.402Z,15.20
2023-05-21T23:54:05.665Z,15.20
2023-05-21T23:56:32.712Z,15.20
2023-05-21T23:58:59.746Z,15.30
